createdAt,value
2017-07-23T08:40:34.880Z,728
2017-07-23T08:46:20.907Z,3052
2017-07-23T08:47:24.989Z,2584
2017-07-23T08:48:30.143Z,1540
2017-07-23T08:49:32.151Z,1744
2017-07-23T08:50:34.397Z,1812
2017-07-23T08:51:36.404Z,1852
2017-07-23T08:52:38.792Z,4
2017-07-23T09:02:52.722Z,204
2017-07-23T09:13:10.909Z,1008
2017-07-23T09:14:12.763Z,916
2017-07-23T09:15:15.379Z,928
2017-07-23T09:16:17.496Z,948
2017-07-23T09:17:18.895Z,1000
2017-07-23T09:18:20.805Z,1092
2017-07-23T09:19:22.570Z,1224
2017-07-23T09:20:24.149Z,1240
2017-07-23T09:21:25.863Z,1244
2017-07-23T09:22:27.459Z,1304
2017-07-23T09:23:29.010Z,1348
2017-07-23T09:24:30.726Z,1276
2017-07-23T09:25:32.210Z,1160
2017-07-23T09:26:33.735Z,1028
2017-07-23T09:27:35.240Z,944
2017-07-23T09:28:37.276Z,852
2017-07-23T09:29:38.869Z,792
2017-07-23T09:30:40.940Z,736
2017-07-23T09:31:43.138Z,660
2017-07-23T09:32:44.762Z,596
2017-07-23T09:33:46.788Z,544
2017-07-23T09:34:48.693Z,492
2017-07-23T09:35:50.300Z,444
2017-07-23T09:36:51.809Z,408
2017-07-23T09:37:54.034Z,400
2017-07-23T09:38:58.395Z,412
2017-07-23T09:39:59.873Z,444
2017-07-23T09:41:01.536Z,444
2017-07-23T09:42:03.883Z,424
2017-07-23T09:43:05.595Z,408
2017-07-23T09:44:07.524Z,408
2017-07-23T09:45:10.110Z,432
2017-07-23T09:46:11.800Z,436
2017-07-23T09:47:14.491Z,436
2017-07-23T09:48:16.632Z,488
2017-07-23T09:50:27.049Z,24
2017-07-23T09:52:00.870Z,800
2017-07-23T09:53:02.504Z,1068
2017-07-23T09:54:24.117Z,1208
2017-07-23T09:55:26.041Z,1180
2017-07-23T09:56:47.687Z,1240
2017-07-23T09:57:49.217Z,1344
2017-07-23T09:59:13.967Z,1312
2017-07-23T10:00:55.636Z,1124
2017-07-23T10:01:58.146Z,1044
2017-07-23T10:03:21.473Z,1068
2017-07-23T10:04:23.063Z,1024
2017-07-23T10:05:44.739Z,916
2017-07-23T10:06:47.237Z,852
2017-07-23T10:07:48.732Z,832
2017-07-23T10:08:50.293Z,808
2017-07-23T10:09:52.175Z,780
2017-07-23T10:10:54.276Z,768
2017-07-23T10:11:56.744Z,808
2017-07-23T10:12:58.177Z,920
2017-07-23T10:13:59.617Z,1020
2017-07-23T10:15:01.750Z,980
2017-07-23T10:16:03.203Z,964
2017-07-23T10:17:04.642Z,956
2017-07-23T10:18:06.008Z,928
2017-07-23T10:19:07.472Z,988
2017-07-23T10:20:08.939Z,1096
2017-07-23T10:21:10.391Z,1224
2017-07-23T10:22:11.867Z,1392
2017-07-23T10:23:13.255Z,1436
2017-07-23T10:24:14.663Z,1340
2017-07-23T10:25:16.696Z,1148
2017-07-23T10:26:18.679Z,1032
2017-07-23T10:27:20.689Z,992
2017-07-23T10:28:22.179Z,940
2017-07-23T10:29:23.628Z,884
2017-07-23T10:30:25.007Z,856
2017-07-23T10:31:26.499Z,888
2017-07-23T10:32:27.929Z,932
2017-07-23T10:33:29.395Z,1020
2017-07-23T10:34:31.031Z,1056
2017-07-23T10:35:32.548Z,1096
2017-07-23T10:36:34.020Z,1216
2017-07-23T10:37:35.435Z,1276
2017-07-23T10:38:36.823Z,1236
2017-07-23T10:39:38.305Z,1220
2017-07-23T10:40:39.744Z,1300
2017-07-23T10:41:41.251Z,1396
2017-07-23T10:42:42.694Z,1476
2017-07-23T10:43:44.193Z,1688
2017-07-23T10:44:45.629Z,1748
2017-07-23T10:45:47.040Z,2036
2017-07-23T10:46:48.488Z,2556
2017-07-23T10:47:50.696Z,2284
2017-07-23T10:48:52.776Z,2316
2017-07-23T10:49:54.331Z,2676
2017-07-23T10:50:55.833Z,2760
2017-07-23T10:51:57.315Z,2360
2017-07-23T10:52:58.823Z,2316
2017-07-23T10:54:00.300Z,2484
2017-07-23T10:55:01.777Z,2568
2017-07-23T10:56:03.262Z,2664
2017-07-23T10:57:04.841Z,2948
2017-07-23T10:58:06.415Z,3904
2017-07-23T10:59:07.933Z,4240
2017-07-23T11:00:09.409Z,4472
2017-07-23T11:01:10.890Z,4248
2017-07-23T11:02:12.401Z,3876
2017-07-23T11:03:13.901Z,3876
2017-07-23T11:04:16.262Z,3648
2017-07-23T11:05:17.741Z,3544
2017-07-23T11:06:19.249Z,3560
2017-07-23T11:07:20.661Z,3616
2017-07-23T11:08:22.092Z,3720
2017-07-23T11:09:23.605Z,3444
2017-07-23T11:10:25.100Z,3272
2017-07-23T11:11:26.624Z,3256
2017-07-23T11:12:28.118Z,3264
2017-07-23T11:13:29.575Z,3200
2017-07-23T11:14:31.095Z,2936
2017-07-23T11:15:32.553Z,2928
2017-07-23T11:16:34.067Z,2916
2017-07-23T11:17:35.537Z,2536
2017-07-23T11:18:37.028Z,2448
2017-07-23T11:19:38.461Z,2472
2017-07-23T11:20:39.967Z,2500
2017-07-23T11:21:41.383Z,2624
2017-07-23T11:22:42.846Z,2500
2017-07-23T11:23:44.372Z,2600
2017-07-23T11:24:45.833Z,2764
2017-07-23T11:25:47.344Z,2640
2017-07-23T11:26:48.944Z,2316
2017-07-23T11:27:50.409Z,2152
2017-07-23T11:28:51.883Z,1904
2017-07-23T11:29:53.330Z,1716
2017-07-23T11:30:54.765Z,1684
2017-07-23T11:31:56.298Z,1700
2017-07-23T11:32:57.773Z,1604
2017-07-23T11:33:59.278Z,1592
2017-07-23T11:35:00.749Z,1644
2017-07-23T11:36:02.211Z,1684
2017-07-23T11:37:03.717Z,1604
2017-07-23T11:38:05.232Z,1528
2017-07-23T11:39:06.736Z,1516
2017-07-23T11:40:08.254Z,1600
2017-07-23T11:41:09.770Z,1864
2017-07-23T11:42:11.276Z,2120
2017-07-23T11:43:12.876Z,2560
2017-07-23T11:44:14.413Z,3256
2017-07-23T11:45:15.997Z,3780
2017-07-23T11:46:17.498Z,4084
2017-07-23T11:47:18.965Z,4260
2017-07-23T11:48:20.467Z,3916
2017-07-23T11:49:21.984Z,4128
2017-07-23T11:50:23.480Z,4332
2017-07-23T11:51:25.002Z,3952
2017-07-23T11:52:26.512Z,3748
2017-07-23T11:53:28.047Z,3628
2017-07-23T11:54:29.669Z,3240
2017-07-23T11:55:31.152Z,2956
2017-07-23T11:56:32.632Z,2716
2017-07-23T11:57:34.156Z,2556
2017-07-23T11:58:35.700Z,2464
2017-07-23T11:59:37.275Z,2548
2017-07-23T12:00:38.829Z,2700
2017-07-23T12:01:40.351Z,3016
2017-07-23T12:02:41.826Z,3264
2017-07-23T12:03:43.319Z,3464
2017-07-23T12:04:44.869Z,3736
2017-07-23T12:05:46.454Z,3816
2017-07-23T12:06:47.986Z,3940
2017-07-23T12:07:49.473Z,4412
2017-07-23T12:08:50.939Z,4324
2017-07-23T12:09:52.423Z,4448
2017-07-23T12:10:53.820Z,4216
2017-07-23T12:11:55.497Z,4004
2017-07-23T12:12:57.797Z,3976
2017-07-23T12:13:59.353Z,3988
2017-07-23T12:15:00.853Z,4352
2017-07-23T12:16:02.346Z,5104
2017-07-23T12:17:03.815Z,4672
2017-07-23T12:18:05.453Z,3980
2017-07-23T12:19:06.930Z,3836
2017-07-23T12:20:08.379Z,3788
2017-07-23T12:21:10.712Z,3936
2017-07-23T12:22:12.214Z,3832
2017-07-23T12:23:14.263Z,3784
2017-07-23T12:24:15.769Z,3740
2017-07-23T12:25:17.361Z,3856
2017-07-23T12:26:20.675Z,4280
2017-07-23T12:27:22.648Z,3692
2017-07-23T12:28:24.189Z,3640
2017-07-23T12:29:25.737Z,3656
2017-07-23T12:30:27.290Z,4432
2017-07-23T12:31:28.785Z,4364
2017-07-23T12:32:30.259Z,4340
2017-07-23T12:33:31.802Z,4120
2017-07-23T12:34:33.266Z,4012
2017-07-23T12:35:34.699Z,4056
2017-07-23T12:36:36.097Z,4184
2017-07-23T12:37:37.709Z,4164
2017-07-23T12:38:39.207Z,4020
2017-07-23T12:39:40.642Z,4040
2017-07-23T12:40:42.703Z,4144
2017-07-23T12:41:43.692Z,4228
2017-07-23T12:42:45.147Z,4672
2017-07-23T12:43:47.212Z,4284
2017-07-23T12:44:49.246Z,4332
2017-07-23T12:45:51.205Z,4716
2017-07-23T12:46:52.695Z,4432
2017-07-23T12:47:54.286Z,4128
2017-07-23T12:48:55.759Z,3724
2017-07-23T12:49:57.228Z,3632
2017-07-23T12:50:58.753Z,3604
2017-07-23T12:52:00.271Z,3556
2017-07-23T12:53:01.687Z,3592
2017-07-23T12:54:03.201Z,4076
2017-07-23T12:55:04.683Z,4248
2017-07-23T12:56:06.234Z,4528
2017-07-23T12:57:08.216Z,3660
2017-07-23T12:58:09.686Z,3880
2017-07-23T12:59:11.835Z,3516
2017-07-23T13:00:14.238Z,3424
2017-07-23T13:01:15.835Z,3628
2017-07-23T13:02:17.309Z,4748
2017-07-23T13:03:18.809Z,3576
2017-07-23T13:04:20.287Z,3752
2017-07-23T13:05:21.755Z,3824
2017-07-23T13:06:23.237Z,4236
2017-07-23T13:07:24.704Z,4640
2017-07-23T13:08:26.226Z,4268
2017-07-23T13:09:27.732Z,4368
2017-07-23T13:10:29.131Z,172
2017-07-23T13:11:30.643Z,172
2017-07-23T13:19:08.299Z,1040
2017-07-23T13:20:09.798Z,4648
2017-07-23T13:21:30.445Z,3852
2017-07-23T13:22:31.916Z,4540
2017-07-23T13:23:53.442Z,1652
2017-07-23T13:24:55.366Z,3668
2017-07-23T13:26:18.404Z,3912
2017-07-23T13:27:20.033Z,3296
2017-07-23T13:28:41.639Z,3540
2017-07-23T13:29:43.784Z,4328
2017-07-23T13:31:07.246Z,3732
2017-07-23T19:36:09.571Z,0
2017-07-23T19:36:34.944Z,0
2017-07-23T19:37:42.272Z,0
2017-07-23T19:38:22.943Z,0
2017-07-23T19:38:34.329Z,0
2017-07-23T19:39:16.270Z,0
2017-07-23T19:39:27.649Z,0
2017-07-23T19:39:59.141Z,0
2017-07-23T19:40:10.520Z,0
2017-07-23T19:41:36.496Z,0
2017-07-23T19:43:07.433Z,0
2017-07-23T19:43:28.811Z,0
2017-07-23T19:44:10.291Z,4
2017-07-23T19:44:31.669Z,0
2017-07-23T19:45:14.175Z,4
2017-07-23T19:45:35.555Z,4
2017-07-23T19:46:17.039Z,4
2017-07-23T19:46:38.417Z,4
2017-07-23T19:47:19.926Z,4
2017-07-23T19:47:41.335Z,4
2017-07-23T19:48:22.870Z,4
2017-07-23T19:48:44.253Z,4
2017-07-23T19:49:28.819Z,4
